Time;durP1;ratioP1;P1;durP2;ratioP2;P2;SDS_P1;SDS_P2;PMS_P1;PMS_P2;Temp;Humidity;BMP_temperature;BMP_pressure;BME280_temperature;BME280_humidity;BME280_pressure;Samples;Min_cycle;Max_cycle;Signal;HPM_P1;HPM_P2
2021/08/19 00:01:21;;;;;;;17.80;13.68;;;16.80;99.90;;;;;;5050098;28;20028;-47
2021/08/19 00:03:47;;;;;;;15.52;11.55;;;16.80;99.90;;;;;;5050093;28;20096;-47
2021/08/19 00:06:13;;;;;;;16.55;12.02;;;16.80;99.90;;;;;;5049168;28;20036;-47
2021/08/19 00:08:40;;;;;;;13.25;10.90;;;16.70;99.90;;;;;;5050008;28;20086;-47
2021/08/19 00:11:06;;;;;;;16.75;11.38;;;16.70;99.90;;;;;;5048386;28;20036;-46
2021/08/19 00:13:32;;;;;;;15.52;11.98;;;16.60;99.90;;;;;;5049596;28;20029;-47
2021/08/19 00:15:58;;;;;;;19.98;12.70;;;16.60;99.90;;;;;;5049659;28;20390;-46
2021/08/19 00:18:24;;;;;;;17.05;12.57;;;16.50;99.90;;;;;;5049271;28;20017;-46
2021/08/19 00:20:49;;;;;;;20.30;12.80;;;16.50;99.90;;;;;;5049599;28;20345;-47
2021/08/19 00:23:15;;;;;;;14.38;12.10;;;16.50;99.90;;;;;;5048314;28;20029;-46
2021/08/19 00:25:41;;;;;;;16.00;12.15;;;16.50;99.90;;;;;;5049777;28;20037;-47
2021/08/19 00:28:06;;;;;;;16.77;11.85;;;16.50;99.90;;;;;;5048859;28;20087;-46
2021/08/19 00:30:32;;;;;;;16.15;11.48;;;16.50;99.90;;;;;;5049459;28;20029;-46
2021/08/19 00:32:58;;;;;;;17.33;12.73;;;16.50;99.90;;;;;;5049557;28;20048;-47
2021/08/19 00:35:23;;;;;;;15.95;12.00;;;16.50;99.90;;;;;;5049258;28;20025;-46
2021/08/19 00:37:49;;;;;;;16.17;12.02;;;16.50;99.90;;;;;;5048606;28;20502;-46
2021/08/19 00:40:14;;;;;;;18.08;12.50;;;16.50;99.90;;;;;;5047872;28;20107;-46
2021/08/19 00:42:40;;;;;;;13.77;11.48;;;16.50;99.90;;;;;;5049328;28;20501;-46
2021/08/19 00:45:10;;;;;;;16.05;11.20;;;16.50;99.90;;;;;;5049140;28;20029;-46
2021/08/19 00:47:40;;;;;;;14.40;10.40;;;16.50;99.90;;;;;;5048883;28;20402;-47
2021/08/19 00:50:07;;;;;;;13.45;11.25;;;16.50;99.90;;;;;;5049135;28;20279;-46
2021/08/19 00:52:34;;;;;;;14.75;10.82;;;16.50;99.90;;;;;;5049040;28;20480;-47
2021/08/19 00:55:00;;;;;;;17.17;10.55;;;16.60;99.90;;;;;;5047890;28;20159;-46
2021/08/19 00:57:26;;;;;;;12.68;9.60;;;16.60;99.90;;;;;;5047474;28;20115;-46
2021/08/19 00:59:52;;;;;;;16.40;9.80;;;16.60;99.90;;;;;;5048083;28;20029;-47
2021/08/19 01:02:20;;;;;;;13.00;10.15;;;16.60;99.90;;;;;;5049269;28;20029;-50
2021/08/19 01:04:45;;;;;;;11.93;9.48;;;16.60;99.90;;;;;;5049113;28;20245;-46
2021/08/19 01:07:11;;;;;;;12.55;9.75;;;16.60;99.90;;;;;;5048292;28;20494;-46
2021/08/19 01:09:38;;;;;;;13.90;10.15;;;16.60;99.90;;;;;;5047721;28;20179;-48
2021/08/19 01:12:05;;;;;;;14.65;11.70;;;16.60;99.90;;;;;;5048922;28;20164;-46
2021/08/19 01:14:33;;;;;;;15.73;12.13;;;16.70;99.90;;;;;;5048551;28;20060;-46
2021/08/19 01:17:04;;;;;;;15.27;11.70;;;16.70;99.90;;;;;;5048188;28;20256;-47
2021/08/19 01:19:29;;;;;;;12.50;10.35;;;16.70;99.90;;;;;;5048639;28;20390;-48
2021/08/19 01:21:55;;;;;;;14.93;10.25;;;16.70;99.90;;;;;;5047360;28;20020;-47
2021/08/19 01:24:21;;;;;;;14.52;11.10;;;16.70;99.90;;;;;;5048630;28;20114;-46
2021/08/19 01:26:49;;;;;;;16.65;11.15;;;16.70;99.90;;;;;;5048302;28;20450;-46
2021/08/19 01:29:15;;;;;;;15.07;11.55;;;16.70;99.90;;;;;;5048767;28;20209;-45
2021/08/19 01:31:40;;;;;;;15.93;10.93;;;16.70;99.90;;;;;;5048586;28;20040;-46
2021/08/19 01:34:06;;;;;;;14.45;11.15;;;16.70;99.90;;;;;;5047133;28;20029;-46
2021/08/19 01:36:35;;;;;;;17.77;11.30;;;16.70;99.90;;;;;;5048027;28;20356;-45
2021/08/19 01:39:01;;;;;;;13.93;10.50;;;16.70;99.90;;;;;;5059546;28;20043;-46
2021/08/19 01:41:26;;;;;;;18.85;12.02;;;16.70;99.90;;;;;;5058065;28;20108;-46
2021/08/19 01:43:53;;;;;;;14.15;11.55;;;16.60;99.90;;;;;;5057098;28;20016;-46
2021/08/19 01:46:20;;;;;;;22.67;14.60;;;16.50;99.90;;;;;;5058278;28;20016;-46
2021/08/19 01:48:47;;;;;;;19.80;15.30;;;16.40;99.90;;;;;;5057478;28;20063;-46
2021/08/19 01:51:17;;;;;;;17.73;14.25;;;16.30;99.90;;;;;;5059756;28;20509;-46
2021/08/19 01:53:43;;;;;;;19.35;14.10;;;16.10;99.90;;;;;;5060407;28;20101;-46
2021/08/19 01:56:11;;;;;;;17.60;13.50;;;16.10;99.90;;;;;;5060732;28;20509;-46
2021/08/19 01:58:37;;;;;;;18.05;14.25;;;16.00;99.90;;;;;;5062625;28;20027;-46
2021/08/19 02:01:03;;;;;;;16.95;13.45;;;15.90;99.90;;;;;;5062957;28;20213;-46
2021/08/19 02:03:28;;;;;;;16.50;11.43;;;15.90;99.90;;;;;;5061684;28;20464;-46
2021/08/19 02:05:53;;;;;;;14.90;9.52;;;15.90;99.90;;;;;;5060675;28;20573;-46
2021/08/19 02:08:19;;;;;;;13.52;8.68;;;15.80;99.90;;;;;;5061571;28;20027;-46
2021/08/19 02:10:46;;;;;;;10.50;7.88;;;15.80;99.90;;;;;;5058134;28;20067;-47
2021/08/19 02:13:12;;;;;;;8.52;7.45;;;15.80;99.90;;;;;;5061792;28;20063;-46
2021/08/19 02:15:38;;;;;;;9.45;7.22;;;15.70;99.90;;;;;;5061206;28;20056;-47
2021/08/19 02:18:04;;;;;;;10.73;7.00;;;15.70;99.90;;;;;;5059860;28;20021;-46
2021/08/19 02:20:30;;;;;;;10.07;6.55;;;15.70;99.90;;;;;;5061838;28;20064;-46
2021/08/19 02:23:00;;;;;;;10.48;7.15;;;15.70;99.90;;;;;;5064429;28;20029;-46
2021/08/19 02:25:26;;;;;;;12.00;7.47;;;15.70;99.90;;;;;;5062857;28;20024;-46
2021/08/19 02:27:52;;;;;;;12.20;7.15;;;15.70;99.90;;;;;;5071339;28;20036;-48
2021/08/19 02:30:18;;;;;;;8.82;7.00;;;15.70;99.90;;;;;;5071747;28;20406;-46
2021/08/19 02:32:43;;;;;;;10.20;6.90;;;15.70;99.90;;;;;;5071558;28;20390;-46
2021/08/19 02:35:09;;;;;;;8.95;7.50;;;15.70;99.90;;;;;;5071676;28;20024;-47
2021/08/19 02:37:34;;;;;;;11.73;8.25;;;15.70;99.90;;;;;;5069625;28;20601;-49
2021/08/19 02:40:00;;;;;;;10.70;9.05;;;15.70;99.90;;;;;;5071528;28;20156;-46
2021/08/19 02:42:25;;;;;;;12.93;8.80;;;15.70;99.90;;;;;;5071396;28;20086;-46
2021/08/19 02:44:51;;;;;;;12.68;9.02;;;15.70;99.90;;;;;;5069990;28;20028;-46
2021/08/19 02:47:16;;;;;;;13.48;9.77;;;15.70;99.90;;;;;;5070695;28;20041;-46
2021/08/19 02:49:42;;;;;;;11.75;8.57;;;15.70;99.90;;;;;;5071512;28;20125;-47
2021/08/19 02:52:07;;;;;;;15.32;9.50;;;15.70;99.90;;;;;;5071387;28;20021;-49
2021/08/19 02:54:33;;;;;;;11.55;8.43;;;15.70;99.90;;;;;;5061504;28;20158;-47
2021/08/19 02:56:58;;;;;;;12.98;9.10;;;15.60;99.90;;;;;;5061490;28;20035;-47
2021/08/19 02:59:24;;;;;;;13.65;9.75;;;15.60;99.90;;;;;;5061570;28;20580;-46
2021/08/19 03:01:49;;;;;;;11.55;9.55;;;15.60;99.90;;;;;;5059807;28;20029;-46
2021/08/19 03:04:15;;;;;;;13.23;10.52;;;15.60;99.90;;;;;;5058013;28;20070;-46
2021/08/19 03:06:41;;;;;;;17.65;11.52;;;15.60;99.90;;;;;;5060712;28;20029;-47
2021/08/19 03:09:06;;;;;;;17.15;11.02;;;15.60;99.90;;;;;;5059424;28;20028;-49
2021/08/19 03:11:32;;;;;;;14.95;11.25;;;15.70;99.90;;;;;;5061029;28;20013;-48
2021/08/19 03:13:58;;;;;;;13.95;10.90;;;15.70;99.90;;;;;;5058865;28;20037;-48
2021/08/19 03:16:24;;;;;;;17.58;12.45;;;15.70;99.90;;;;;;5050445;28;20037;-48
2021/08/19 03:18:50;;;;;;;16.40;12.10;;;15.70;99.90;;;;;;5049421;28;20070;-46
2021/08/19 03:21:17;;;;;;;17.63;13.73;;;15.70;99.90;;;;;;5050777;28;20033;-48
2021/08/19 03:23:43;;;;;;;19.60;13.63;;;15.70;99.90;;;;;;5050645;28;20066;-47
2021/08/19 03:26:08;;;;;;;16.77;12.35;;;15.70;99.90;;;;;;5049933;28;20033;-46
2021/08/19 03:28:34;;;;;;;18.45;13.88;;;15.70;99.90;;;;;;5050501;28;20055;-46
2021/08/19 03:31:00;;;;;;;21.38;14.10;;;15.70;99.90;;;;;;5050457;28;20429;-46
2021/08/19 03:33:26;;;;;;;20.73;13.38;;;15.70;99.90;;;;;;5050364;28;20116;-47
2021/08/19 03:35:51;;;;;;;14.95;11.98;;;15.80;99.90;;;;;;5050816;28;20033;-46
2021/08/19 03:38:17;;;;;;;17.50;12.23;;;15.80;99.90;;;;;;5058829;28;20056;-46
2021/08/19 03:40:43;;;;;;;19.23;13.15;;;15.80;99.90;;;;;;5060068;28;20017;-46
2021/08/19 03:43:10;;;;;;;17.92;11.48;;;15.80;99.90;;;;;;5059010;28;20028;-46
2021/08/19 03:45:36;;;;;;;18.33;12.20;;;15.80;99.90;;;;;;5059114;28;20033;-47
2021/08/19 03:48:01;;;;;;;20.05;11.30;;;15.80;99.90;;;;;;5059460;28;20021;-46
2021/08/19 03:50:27;;;;;;;18.60;12.15;;;15.90;99.90;;;;;;5060474;28;20483;-45
2021/08/19 03:52:53;;;;;;;14.63;11.50;;;15.90;99.90;;;;;;5058991;28;20019;-45
2021/08/19 03:55:18;;;;;;;19.75;11.63;;;15.90;99.90;;;;;;5060290;28;20108;-45
2021/08/19 03:57:44;;;;;;;19.08;11.35;;;15.90;99.90;;;;;;5058736;28;20094;-46
2021/08/19 04:00:10;;;;;;;17.90;11.75;;;15.90;99.90;;;;;;5055350;28;20060;-45
2021/08/19 04:02:35;;;;;;;16.35;11.98;;;15.90;99.90;;;;;;5050412;28;20153;-46
2021/08/19 04:05:00;;;;;;;12.55;9.52;;;15.90;99.90;;;;;;5050005;28;20244;-46
2021/08/19 04:07:26;;;;;;;12.98;10.25;;;15.90;99.90;;;;;;5049212;28;20029;-46
2021/08/19 04:09:51;;;;;;;17.10;11.63;;;16.00;99.90;;;;;;5049793;28;20076;-46
2021/08/19 04:12:17;;;;;;;17.25;10.98;;;16.00;99.90;;;;;;5049703;28;20032;-46
2021/08/19 04:14:43;;;;;;;14.30;9.77;;;16.00;99.90;;;;;;5049164;28;20021;-45
2021/08/19 04:17:08;;;;;;;14.75;10.45;;;16.00;99.90;;;;;;5049032;28;20025;-47
2021/08/19 04:19:34;;;;;;;16.77;10.85;;;16.10;99.90;;;;;;5049491;28;20025;-46
2021/08/19 04:21:59;;;;;;;21.73;12.43;;;16.10;99.90;;;;;;5049731;28;20063;-46
2021/08/19 04:24:25;;;;;;;15.23;9.75;;;16.10;99.90;;;;;;5049560;28;20128;-45
2021/08/19 04:26:50;;;;;;;16.23;10.30;;;16.10;99.90;;;;;;5049075;28;20044;-45
2021/08/19 04:29:16;;;;;;;18.20;11.20;;;16.10;99.90;;;;;;5049587;28;20025;-46
2021/08/19 04:31:41;;;;;;;17.20;10.75;;;16.00;99.90;;;;;;5048123;28;20067;-45
2021/08/19 04:34:07;;;;;;;14.88;9.50;;;16.10;99.90;;;;;;5049425;28;20488;-45
2021/08/19 04:36:33;;;;;;;13.55;9.77;;;16.00;99.90;;;;;;5048694;28;20025;-46
2021/08/19 04:38:59;;;;;;;11.80;8.68;;;16.00;99.90;;;;;;5049280;28;20053;-45
2021/08/19 04:41:25;;;;;;;15.15;10.73;;;16.10;99.90;;;;;;5049131;28;20049;-46
2021/08/19 04:43:50;;;;;;;14.23;9.93;;;16.00;99.90;;;;;;5048972;28;20064;-46
2021/08/19 04:46:16;;;;;;;16.13;9.75;;;16.10;99.90;;;;;;5048499;28;20052;-46
2021/08/19 04:48:42;;;;;;;15.18;9.10;;;16.10;99.90;;;;;;5049202;28;20025;-46
2021/08/19 04:51:07;;;;;;;12.55;9.98;;;16.10;99.90;;;;;;5049239;28;20053;-46
2021/08/19 04:53:33;;;;;;;13.93;10.13;;;16.20;99.90;;;;;;5048917;28;20051;-47
2021/08/19 04:55:58;;;;;;;15.25;10.13;;;16.10;99.90;;;;;;5048853;28;20021;-47
2021/08/19 04:58:26;;;;;;;13.90;9.82;;;16.10;99.90;;;;;;5048244;28;20013;-47
2021/08/19 05:00:52;;;;;;;11.75;8.77;;;16.20;99.90;;;;;;5048937;28;20021;-47
2021/08/19 05:03:18;;;;;;;13.93;9.98;;;16.20;99.90;;;;;;5049009;28;20029;-46
2021/08/19 05:05:43;;;;;;;13.18;8.77;;;16.20;99.90;;;;;;5048890;28;20424;-48
2021/08/19 05:08:08;;;;;;;11.75;8.48;;;16.20;99.90;;;;;;5048096;28;20029;-46
2021/08/19 05:10:34;;;;;;;11.88;8.80;;;16.10;99.90;;;;;;5049080;28;20025;-47
2021/08/19 05:12:59;;;;;;;12.23;8.70;;;16.10;99.90;;;;;;5048625;28;20521;-46
2021/08/19 05:15:25;;;;;;;15.52;10.00;;;16.20;99.90;;;;;;5048665;28;20502;-46
2021/08/19 05:17:50;;;;;;;20.52;10.10;;;16.10;99.90;;;;;;5047986;28;20108;-46
2021/08/19 05:20:16;;;;;;;17.25;10.70;;;16.20;99.90;;;;;;5048666;28;20029;-46
2021/08/19 05:22:42;;;;;;;13.70;10.23;;;16.10;99.90;;;;;;5048539;28;20363;-47
2021/08/19 05:25:08;;;;;;;19.30;12.82;;;16.10;99.90;;;;;;5048878;28;20039;-46
2021/08/19 05:27:33;;;;;;;19.05;12.23;;;16.00;99.90;;;;;;5047038;28;20035;-45
2021/08/19 05:29:59;;;;;;;19.13;12.80;;;16.00;99.90;;;;;;5048365;28;20029;-46
2021/08/19 05:32:24;;;;;;;17.20;11.23;;;16.00;99.90;;;;;;5046887;28;20027;-46
2021/08/19 05:34:50;;;;;;;17.63;12.20;;;16.00;99.90;;;;;;5047095;28;20720;-46
2021/08/19 05:37:15;;;;;;;18.05;11.63;;;16.00;99.90;;;;;;5047604;28;20095;-46
2021/08/19 05:39:41;;;;;;;15.80;10.32;;;16.00;99.90;;;;;;5048302;28;20195;-45
2021/08/19 05:42:07;;;;;;;17.88;11.85;;;16.00;99.90;;;;;;5048165;28;20430;-47
2021/08/19 05:44:33;;;;;;;16.05;11.40;;;16.00;99.90;;;;;;5046857;28;20078;-46
2021/08/19 05:46:58;;;;;;;14.18;9.98;;;16.10;99.90;;;;;;5046487;28;20029;-45
2021/08/19 05:49:24;;;;;;;14.60;10.93;;;16.10;99.90;;;;;;5048475;28;20052;-46
2021/08/19 05:51:50;;;;;;;16.67;10.32;;;16.10;99.90;;;;;;5048350;28;20036;-46
2021/08/19 05:54:16;;;;;;;14.88;9.73;;;16.10;99.90;;;;;;5048379;28;20470;-45
2021/08/19 05:56:41;;;;;;;11.23;8.48;;;16.20;99.90;;;;;;5047630;28;20029;-45
2021/08/19 05:59:07;;;;;;;16.67;9.30;;;16.20;99.90;;;;;;5048407;28;20021;-46
2021/08/19 06:01:33;;;;;;;13.88;9.07;;;16.30;99.90;;;;;;5047055;28;20391;-46
2021/08/19 06:03:58;;;;;;;12.63;9.07;;;16.30;99.90;;;;;;5047116;28;20021;-46
2021/08/19 06:06:24;;;;;;;15.00;9.68;;;16.40;99.90;;;;;;5053355;28;20036;-46
2021/08/19 06:08:49;;;;;;;12.40;9.60;;;16.40;99.90;;;;;;5068149;28;20028;-46
2021/08/19 06:11:14;;;;;;;11.85;8.57;;;16.40;99.90;;;;;;5068027;28;20028;-46
2021/08/19 06:13:40;;;;;;;19.27;9.88;;;16.40;99.90;;;;;;5066504;28;20507;-46
2021/08/19 06:16:05;;;;;;;16.35;8.68;;;16.50;99.90;;;;;;5056256;28;20025;-48
2021/08/19 06:18:31;;;;;;;13.48;8.52;;;16.50;99.90;;;;;;5056502;28;20514;-47
2021/08/19 06:20:57;;;;;;;12.85;9.15;;;16.60;99.90;;;;;;5057043;28;20035;-46
2021/08/19 06:23:24;;;;;;;11.25;8.02;;;16.60;99.90;;;;;;5077534;28;20052;-48
2021/08/19 06:25:50;;;;;;;10.95;8.73;;;16.70;99.90;;;;;;5088158;28;20389;-46
2021/08/19 06:28:16;;;;;;;11.27;8.18;;;16.80;99.90;;;;;;5087760;28;20024;-47
2021/08/19 06:30:41;;;;;;;16.58;8.50;;;17.00;99.90;;;;;;5086577;28;20035;-47
2021/08/19 06:33:07;;;;;;;9.10;7.25;;;17.10;99.90;;;;;;5088116;28;20020;-46
2021/08/19 06:35:32;;;;;;;17.60;8.90;;;17.30;99.90;;;;;;5088050;28;20069;-47
2021/08/19 06:37:58;;;;;;;9.38;7.20;;;17.40;99.90;;;;;;5088930;28;20016;-47
2021/08/19 06:40:24;;;;;;;10.25;8.15;;;17.50;99.90;;;;;;5092189;28;20293;-47
2021/08/19 06:42:49;;;;;;;12.88;8.85;;;17.50;99.90;;;;;;5080292;28;20374;-47
2021/08/19 06:45:16;;;;;;;11.85;8.52;;;17.60;99.90;;;;;;5059502;28;20025;-46
2021/08/19 06:47:41;;;;;;;10.93;8.70;;;17.70;99.90;;;;;;5050726;28;20064;-46
2021/08/19 06:50:08;;;;;;;11.48;7.88;;;17.70;99.90;;;;;;5049839;28;20057;-47
2021/08/19 06:52:38;;;;;;;11.98;8.63;;;17.80;99.90;;;;;;5067422;28;20472;-46
2021/08/19 06:55:04;;;;;;;15.13;8.50;;;17.80;99.90;;;;;;5091579;28;20071;-47
2021/08/19 06:57:29;;;;;;;13.73;9.23;;;17.80;99.90;;;;;;5090995;28;20050;-46
2021/08/19 06:59:55;;;;;;;10.20;7.35;;;17.90;99.90;;;;;;5060051;28;20059;-47
2021/08/19 07:02:20;;;;;;;10.50;8.05;;;17.90;99.90;;;;;;5058883;28;20027;-47
2021/08/19 07:04:46;;;;;;;16.35;8.30;;;18.00;99.90;;;;;;5060279;28;20024;-47
2021/08/19 07:07:11;;;;;;;9.23;7.40;;;18.00;99.90;;;;;;5058796;28;20116;-46
2021/08/19 07:09:37;;;;;;;9.75;7.20;;;18.10;99.90;;;;;;5074862;28;20413;-47
2021/08/19 07:12:03;;;;;;;14.65;9.38;;;18.20;99.90;;;;;;5091119;28;20032;-47
2021/08/19 07:14:28;;;;;;;13.35;8.10;;;18.40;99.90;;;;;;5091203;28;20028;-47
2021/08/19 07:16:54;;;;;;;12.70;8.48;;;18.50;99.90;;;;;;5090457;28;20773;-47
2021/08/19 07:19:19;;;;;;;13.80;9.02;;;18.60;99.90;;;;;;5090870;28;20020;-47
2021/08/19 07:21:45;;;;;;;17.05;9.55;;;18.60;99.90;;;;;;5090947;28;20528;-47
2021/08/19 07:24:11;;;;;;;14.65;8.52;;;18.60;99.90;;;;;;5089490;28;20028;-46
2021/08/19 07:26:37;;;;;;;11.63;8.32;;;18.50;99.90;;;;;;5082218;28;20132;-46
2021/08/19 07:29:02;;;;;;;21.27;10.48;;;18.50;99.90;;;;;;5053297;28;20041;-47
2021/08/19 07:31:28;;;;;;;13.23;9.05;;;18.60;99.90;;;;;;5049419;28;20593;-47
2021/08/19 07:33:53;;;;;;;106.28;28.25;;;18.50;99.90;;;;;;5062870;28;20091;-47
2021/08/19 07:36:20;;;;;;;16.25;9.38;;;18.50;99.90;;;;;;5030962;28;20662;-47
2021/08/19 07:38:46;;;;;;;22.63;11.25;;;18.50;99.90;;;;;;5048663;28;20054;-47
2021/08/19 07:41:11;;;;;;;23.27;11.40;;;18.40;99.90;;;;;;5048231;28;20029;-47
2021/08/19 07:43:37;;;;;;;18.50;10.40;;;18.30;99.90;;;;;;5049565;28;20084;-47
2021/08/19 07:46:03;;;;;;;20.23;9.57;;;18.30;99.90;;;;;;5048648;28;20113;-47
2021/08/19 07:48:28;;;;;;;18.60;9.38;;;18.20;99.90;;;;;;5050081;28;20029;-47
2021/08/19 07:50:54;;;;;;;10.23;8.02;;;18.10;99.90;;;;;;5049287;28;20025;-47
2021/08/19 07:53:20;;;;;;;18.20;9.10;;;18.10;99.90;;;;;;5049909;28;20083;-47
2021/08/19 07:55:45;;;;;;;15.38;9.75;;;18.10;99.90;;;;;;5050121;28;20102;-47
2021/08/19 07:58:11;;;;;;;17.25;9.15;;;18.10;99.90;;;;;;5049512;28;20426;-47
2021/08/19 08:00:37;;;;;;;14.38;8.85;;;18.10;99.90;;;;;;5050200;28;20344;-47
2021/08/19 08:03:03;;;;;;;12.98;8.32;;;18.10;99.90;;;;;;5048737;28;20100;-47
2021/08/19 08:05:31;;;;;;;18.92;9.77;;;18.10;99.90;;;;;;5049759;28;20180;-46
2021/08/19 08:08:05;;;;;;;11.20;8.30;;;18.10;99.90;;;;;;5049188;28;20029;-49
2021/08/19 08:10:31;;;;;;;16.75;9.32;;;18.10;99.90;;;;;;5049816;28;20032;-47
2021/08/19 08:12:59;;;;;;;11.73;8.45;;;18.10;99.90;;;;;;5049506;28;20029;-47
2021/08/19 08:15:25;;;;;;;14.60;7.95;;;18.20;99.90;;;;;;5048779;28;20491;-50
2021/08/19 08:17:51;;;;;;;10.98;8.52;;;18.20;99.90;;;;;;5067652;28;20118;-47
2021/08/19 08:20:17;;;;;;;15.48;8.80;;;18.20;99.90;;;;;;5064318;28;20024;-50
2021/08/19 08:22:45;;;;;;;10.43;8.10;;;18.20;99.90;;;;;;5058509;28;20025;-50
2021/08/19 08:25:12;;;;;;;14.48;9.30;;;18.20;99.90;;;;;;5058749;28;20021;-48
2021/08/19 08:27:48;;;;;;;15.27;9.80;;;18.30;99.90;;;;;;5059465;28;20020;-50
2021/08/19 08:30:14;;;;;;;14.95;9.20;;;18.30;99.90;;;;;;5060003;28;20021;-50
2021/08/19 08:32:39;;;;;;;17.05;10.23;;;18.30;99.90;;;;;;5058324;28;20067;-50
2021/08/19 08:35:07;;;;;;;13.85;10.40;;;18.30;99.90;;;;;;5051130;28;20198;-48
2021/08/19 08:37:32;;;;;;;15.95;10.43;;;18.30;99.90;;;;;;5048915;28;20355;-49
2021/08/19 08:39:57;;;;;;;15.32;10.27;;;18.30;99.90;;;;;;5049509;28;20025;-47
2021/08/19 08:42:26;;;;;;;12.68;10.05;;;18.40;99.90;;;;;;5049428;28;20025;-47
2021/08/19 08:44:51;;;;;;;13.15;9.15;;;18.50;99.90;;;;;;5049050;28;20506;-47
2021/08/19 08:47:18;;;;;;;13.15;9.02;;;18.70;99.90;;;;;;5048501;28;20036;-47
2021/08/19 08:49:45;;;;;;;12.23;8.70;;;18.80;99.90;;;;;;5048827;28;20025;-48
2021/08/19 08:52:11;;;;;;;13.70;9.00;;;19.00;99.90;;;;;;5048976;28;20187;-48
2021/08/19 08:54:36;;;;;;;14.25;9.10;;;19.10;99.90;;;;;;5049098;28;20025;-48
2021/08/19 08:57:02;;;;;;;13.90;8.07;;;19.30;99.90;;;;;;5048774;28;20017;-47
2021/08/19 08:59:27;;;;;;;11.57;7.60;;;19.50;99.90;;;;;;5049177;28;20025;-47
2021/08/19 09:01:55;;;;;;;12.48;7.25;;;19.70;99.90;;;;;;5048890;28;20037;-47
2021/08/19 09:04:21;;;;;;;9.48;7.00;;;19.90;99.90;;;;;;5049413;28;20044;-47
2021/08/19 09:06:47;;;;;;;9.00;5.68;;;19.90;99.90;;;;;;5048357;28;20036;-47
2021/08/19 09:09:23;;;;;;;11.68;5.95;;;19.90;99.90;;;;;;5047808;28;20021;-47
2021/08/19 09:11:58;;;;;;;11.65;5.78;;;19.90;99.90;;;;;;5048830;28;20470;-48
2021/08/19 09:14:31;;;;;;;13.02;5.28;;;19.80;99.90;;;;;;5048632;28;20037;-47
2021/08/19 09:16:57;;;;;;;9.77;5.97;;;19.70;99.90;;;;;;5046665;28;20060;-47
2021/08/19 09:19:28;;;;;;;7.43;5.68;;;19.60;99.90;;;;;;5048680;28;20484;-47
2021/08/19 09:21:59;;;;;;;13.82;6.55;;;19.60;99.90;;;;;;5048488;28;20031;-47
2021/08/19 09:24:26;;;;;;;10.82;6.53;;;19.50;99.90;;;;;;5048711;28;20380;-47
2021/08/19 09:26:54;;;;;;;14.93;6.82;;;19.40;99.90;;;;;;5047972;28;20029;-47
2021/08/19 09:29:24;;;;;;;9.90;6.40;;;19.30;99.90;;;;;;5048580;28;20021;-46
2021/08/19 09:31:52;;;;;;;10.27;7.40;;;19.30;99.90;;;;;;5048711;28;20095;-47
2021/08/19 09:34:18;;;;;;;9.55;6.57;;;19.30;99.90;;;;;;5048663;28;20497;-47
2021/08/19 09:36:44;;;;;;;13.75;7.65;;;19.20;99.90;;;;;;5048088;28;20029;-47
2021/08/19 09:39:10;;;;;;;12.77;7.47;;;19.20;99.90;;;;;;5048817;28;20036;-49
2021/08/19 09:41:54;;;;;;;10.15;6.75;;;19.10;99.90;;;;;;5048551;28;20025;-48
2021/08/19 09:44:42;;;;;;;13.98;6.70;;;19.10;99.90;;;;;;5048400;28;20199;-47
2021/08/19 09:47:31;;;;;;;9.20;6.65;;;19.10;99.90;;;;;;5046332;28;20036;-46
2021/08/19 09:50:14;;;;;;;9.10;5.82;;;19.20;99.90;;;;;;5046859;28;20029;-46
2021/08/19 09:52:41;;;;;;;10.45;7.32;;;19.20;99.90;;;;;;5048665;28;20023;-47
2021/08/19 09:55:26;;;;;;;8.60;6.85;;;18.90;99.90;;;;;;5048401;28;20509;-49
2021/08/19 09:57:59;;;;;;;10.60;7.30;;;18.90;99.90;;;;;;5047750;28;20494;-46
2021/08/19 10:00:27;;;;;;;12.35;7.40;;;18.80;99.90;;;;;;5048131;28;20033;-47
2021/08/19 10:02:54;;;;;;;9.30;6.50;;;18.80;99.90;;;;;;5048686;28;20031;-46
2021/08/19 10:05:20;;;;;;;12.10;7.45;;;18.90;99.90;;;;;;5047060;28;20640;-49
2021/08/19 10:07:45;;;;;;;14.52;7.63;;;18.90;99.90;;;;;;5047617;28;20094;-47
2021/08/19 10:10:11;;;;;;;11.07;7.30;;;18.80;99.90;;;;;;5047950;28;20033;-47
2021/08/19 10:12:41;;;;;;;12.38;8.13;;;18.90;99.90;;;;;;5048901;28;20037;-48
2021/08/19 10:15:07;;;;;;;;;;;19.00;99.90;;;;;;5052451;28;20653;-48
2021/08/19 10:17:35;;;;;;;17.70;8.82;;;19.00;99.90;;;;;;5051668;28;19908;-47
2021/08/19 10:20:04;;;;;;;11.00;8.38;;;19.10;99.90;;;;;;5052496;28;20626;-47
2021/08/19 10:22:33;;;;;;;12.60;8.73;;;19.10;99.90;;;;;;5052324;28;20636;-48
2021/08/19 10:24:59;;;;;;;14.70;8.60;;;19.10;99.90;;;;;;5052242;28;20025;-48
2021/08/19 10:27:27;;;;;;;13.02;8.52;;;19.10;99.90;;;;;;5051612;28;20052;-47
2021/08/19 10:29:59;;;;;;;12.80;7.95;;;19.20;99.90;;;;;;5051977;28;20101;-47
2021/08/19 10:32:33;;;;;;;10.77;7.88;;;19.10;99.90;;;;;;5051856;28;20070;-47
2021/08/19 10:35:05;;;;;;;10.40;8.13;;;19.20;99.90;;;;;;5051750;28;20045;-49
2021/08/19 10:37:58;;;;;;;9.45;7.13;;;19.40;99.90;;;;;;5051422;28;20025;-47
2021/08/19 10:40:31;;;;;;;12.63;7.93;;;19.70;99.90;;;;;;5050167;28;20029;-48
2021/08/19 10:43:00;;;;;;;11.73;7.10;;;19.60;99.90;;;;;;5051798;28;20029;-47
2021/08/19 10:45:29;;;;;;;11.65;6.20;;;19.60;99.90;;;;;;5051401;28;20031;-47
2021/08/19 10:48:15;;;;;;;6.85;5.35;;;19.70;99.90;;;;;;5050901;28;20021;-47
2021/08/19 10:50:42;;;;;;;8.63;5.80;;;19.80;99.90;;;;;;5051179;28;20083;-47
2021/08/19 10:53:22;;;;;;;8.40;6.97;;;19.80;99.90;;;;;;5051486;28;20021;-49
2021/08/19 10:55:49;;;;;;;9.52;7.80;;;19.80;99.90;;;;;;5051247;28;20024;-48
2021/08/19 10:58:27;;;;;;;14.82;10.18;;;19.70;99.90;;;;;;5050457;28;20566;-47
2021/08/19 11:01:01;;;;;;;14.07;10.45;;;19.70;99.90;;;;;;5049739;28;20706;-47
2021/08/19 11:03:35;;;;;;;12.75;9.20;;;19.60;99.90;;;;;;5051324;28;20170;-47
2021/08/19 11:06:02;;;;;;;10.63;7.72;;;19.70;99.90;;;;;;5049737;28;20033;-48
2021/08/19 11:08:37;;;;;;;10.23;8.07;;;19.80;99.90;;;;;;5050633;28;20383;-47
2021/08/19 11:11:03;;;;;;;8.13;7.30;;;20.00;99.90;;;;;;5051747;28;20032;-48
2021/08/19 11:13:31;;;;;;;10.25;8.75;;;20.20;99.90;;;;;;5050792;28;20085;-47
2021/08/19 11:15:57;;;;;;;11.35;10.15;;;20.30;99.90;;;;;;5051082;28;20557;-47
2021/08/19 11:18:30;;;;;;;18.02;13.05;;;20.50;99.90;;;;;;5050383;28;20167;-47
2021/08/19 11:20:56;;;;;;;16.77;13.52;;;20.20;99.90;;;;;;5049519;28;20562;-49
2021/08/19 11:23:29;;;;;;;14.77;11.35;;;20.30;99.90;;;;;;5050603;28;20036;-50
2021/08/19 11:26:07;;;;;;;16.15;12.13;;;20.40;99.90;;;;;;5049979;28;20090;-48
2021/08/19 11:28:39;;;;;;;16.33;11.52;;;20.50;99.90;;;;;;5050915;28;20033;-48
2021/08/19 11:31:20;;;;;;;18.13;13.73;;;20.50;99.90;;;;;;5050614;28;20028;-50
2021/08/19 11:33:46;;;;;;;;;;;20.60;99.90;;;;;;5050972;28;20029;-47
2021/08/19 11:36:14;;;;;;;15.23;11.50;;;20.50;99.90;;;;;;5049728;28;19912;-47
2021/08/19 11:38:41;;;;;;;15.07;12.73;;;20.60;99.90;;;;;;5050551;28;20024;-47
2021/08/19 11:41:13;;;;;;;15.57;10.60;;;20.50;99.90;;;;;;5050577;28;20032;-47
2021/08/19 11:43:41;;;;;;;20.33;13.13;;;20.60;99.90;;;;;;5050449;28;20168;-48
2021/08/19 11:46:08;;;;;;;16.52;12.20;;;20.50;99.90;;;;;;5049868;28;20021;-47
2021/08/19 11:48:36;;;;;;;15.50;11.68;;;20.40;99.90;;;;;;5050748;28;20025;-47
2021/08/19 11:51:04;;;;;;;20.67;13.05;;;20.30;99.90;;;;;;5050113;28;20144;-47
2021/08/19 11:53:30;;;;;;;13.35;9.95;;;20.30;99.90;;;;;;5050837;28;20024;-48
2021/08/19 11:56:09;;;;;;;15.23;13.05;;;20.30;99.90;;;;;;5050293;28;20025;-49
2021/08/19 11:58:34;;;;;;;13.95;11.85;;;20.10;99.90;;;;;;5050194;28;20025;-48
2021/08/19 12:01:05;;;;;;;12.50;10.57;;;20.00;99.90;;;;;;5050060;28;20040;-47
2021/08/19 12:03:41;;;;;;;16.85;11.60;;;20.10;99.90;;;;;;5050356;28;20104;-47
2021/08/19 12:06:18;;;;;;;11.70;9.55;;;20.00;99.90;;;;;;5049547;28;20033;-48
2021/08/19 12:08:52;;;;;;;12.60;9.73;;;20.00;99.90;;;;;;5049878;28;20195;-49
2021/08/19 12:11:20;;;;;;;14.07;11.38;;;20.00;99.90;;;;;;5050393;28;20037;-47
2021/08/19 12:13:47;;;;;;;10.50;8.65;;;20.00;99.90;;;;;;5049953;28;20029;-48
2021/08/19 12:16:19;;;;;;;16.50;10.38;;;20.00;99.90;;;;;;5049484;28;20104;-49
2021/08/19 12:18:44;;;;;;;16.52;11.20;;;20.10;99.90;;;;;;5049907;28;20048;-47
2021/08/19 12:21:18;;;;;;;13.35;10.43;;;20.20;99.90;;;;;;5049818;28;20033;-47
2021/08/19 12:23:46;;;;;;;14.75;11.30;;;20.40;99.90;;;;;;5049648;28;20641;-47
2021/08/19 12:26:14;;;;;;;13.70;10.85;;;20.60;99.90;;;;;;5048920;28;20396;-50
2021/08/19 12:28:52;;;;;;;13.50;9.90;;;20.70;99.90;;;;;;5049673;28;20067;-47
2021/08/19 12:31:17;;;;;;;13.07;10.10;;;21.00;99.90;;;;;;5049555;28;20021;-49
2021/08/19 12:33:43;;;;;;;11.48;9.40;;;21.40;99.90;;;;;;5049568;28;20355;-47